createdAt,value
2023-05-14T00:00:58.549Z,7.55
2023-05-14T00:04:00.639Z,6.75
2023-05-14T00:07:02.754Z,6.28
2023-05-14T00:10:05.458Z,6.23
2023-05-14T00:13:07.477Z,6.63
2023-05-14T00:16:09.581Z,7.22
2023-05-14T00:19:12.125Z,6.40
2023-05-14T00:22:14.380Z,6.15
2023-05-14T00:25:16.536Z,6.63
2023-05-14T00:28:18.637Z,6.50
2023-05-14T00:31:20.698Z,6.25
2023-05-14T00:34:22.906Z,6.68
2023-05-14T00:37:24.926Z,6.53
2023-05-14T00:40:27.143Z,6.20
2023-05-14T00:43:29.487Z,6.75
2023-05-14T00:46:31.583Z,6.93
2023-05-14T00:49:33.595Z,6.75
2023-05-14T00:52:36.175Z,6.13
2023-05-14T00:55:38.423Z,6.03
2023-05-14T00:58:40.863Z,6.10
2023-05-14T01:01:42.969Z,5.90
2023-05-14T01:04:44.933Z,6.20
2023-05-14T01:07:56.017Z,6.63
2023-05-14T01:11:00.709Z,6.72
2023-05-14T01:14:22.790Z,6.88
2023-05-14T01:17:25.386Z,6.87
2023-05-14T01:20:27.372Z,6.93
2023-05-14T01:23:29.435Z,6.45
2023-05-14T01:26:31.706Z,6.10
2023-05-14T01:29:34.028Z,6.03
2023-05-14T01:32:36.730Z,6.63
2023-05-14T01:35:38.686Z,7.00
2023-05-14T01:38:45.687Z,6.60
2023-05-14T01:41:48.692Z,6.10
2023-05-14T01:44:51.035Z,6.72
2023-05-14T01:47:53.454Z,6.18
2023-05-14T01:50:55.586Z,6.43
2023-05-14T01:53:57.575Z,6.27
2023-05-14T01:56:59.996Z,6.50
2023-05-14T02:00:01.946Z,6.15
2023-05-14T02:03:05.126Z,6.23
2023-05-14T02:06:07.649Z,5.80
2023-05-14T02:09:10.502Z,6.57
2023-05-14T02:12:13.011Z,6.60
2023-05-14T02:15:15.618Z,6.10
2023-05-14T02:18:18.146Z,5.93
2023-05-14T02:21:20.782Z,6.18
2023-05-14T02:24:22.949Z,6.45
2023-05-14T02:27:25.058Z,6.10
2023-05-14T02:30:27.890Z,5.57
2023-05-14T02:33:30.138Z,6.28
2023-05-14T02:36:32.693Z,6.03
2023-05-14T02:39:34.689Z,6.17
2023-05-14T02:42:37.038Z,5.70
2023-05-14T02:45:39.165Z,5.43
2023-05-14T02:48:41.139Z,6.65
2023-05-14T02:51:43.124Z,5.50
2023-05-14T02:54:45.103Z,5.72
2023-05-14T02:57:47.176Z,5.75
2023-05-14T03:00:49.174Z,5.53
2023-05-14T03:03:51.939Z,5.78
2023-05-14T03:06:54.939Z,6.25
2023-05-14T03:09:57.424Z,5.30
2023-05-14T03:12:59.544Z,5.90
2023-05-14T03:16:01.553Z,5.88
2023-05-14T03:19:04.037Z,5.53
2023-05-14T03:22:06.357Z,5.63
2023-05-14T03:25:08.578Z,5.63
2023-05-14T03:28:11.319Z,5.72
2023-05-14T03:31:13.349Z,5.65
2023-05-14T03:34:15.946Z,5.20
2023-05-14T03:37:17.936Z,5.13
2023-05-14T03:40:19.947Z,5.35
2023-05-14T03:43:22.440Z,4.97
2023-05-14T03:46:25.228Z,5.40
2023-05-14T03:49:27.539Z,5.15
2023-05-14T03:52:31.036Z,5.07
2023-05-14T03:55:33.488Z,5.13
2023-05-14T03:58:35.547Z,4.90
2023-05-14T04:01:37.504Z,5.63
2023-05-14T04:04:40.524Z,4.78
2023-05-14T04:07:42.853Z,5.40
2023-05-14T04:10:44.836Z,5.47
2023-05-14T04:13:46.853Z,5.53
2023-05-14T04:16:49.014Z,5.05
2023-05-14T04:19:51.624Z,4.72
2023-05-14T04:22:54.004Z,5.30
2023-05-14T04:25:56.007Z,4.82
2023-05-14T04:29:02.758Z,4.80
2023-05-14T04:32:05.732Z,4.80
2023-05-14T04:35:09.039Z,4.87
2023-05-14T04:38:11.544Z,4.70
2023-05-14T04:41:13.479Z,4.50
2023-05-14T04:44:15.952Z,5.43
2023-05-14T04:47:18.008Z,5.10
2023-05-14T04:50:20.432Z,4.47
2023-05-14T04:53:22.857Z,4.50
2023-05-14T04:56:25.177Z,5.07
2023-05-14T04:59:27.140Z,5.57
2023-05-14T05:02:29.651Z,5.00
2023-05-14T05:05:31.673Z,4.50
2023-05-14T05:08:35.278Z,5.28
2023-05-14T05:11:38.855Z,4.30
2023-05-14T05:14:40.902Z,5.20
2023-05-14T05:17:43.336Z,4.90
2023-05-14T05:20:45.755Z,5.18
2023-05-14T05:23:47.694Z,4.80
2023-05-14T05:26:51.946Z,4.50
2023-05-14T05:29:54.016Z,5.00
2023-05-14T05:32:57.783Z,5.35
2023-05-14T05:36:00.341Z,4.95
2023-05-14T05:39:02.711Z,5.00
2023-05-14T05:42:05.499Z,5.13
2023-05-14T05:45:08.045Z,4.93
2023-05-14T05:48:10.271Z,4.85
2023-05-14T05:51:12.263Z,4.43
2023-05-14T05:54:14.284Z,5.27
2023-05-14T05:57:16.715Z,5.50
2023-05-14T06:00:19.500Z,6.38
2023-05-14T06:03:22.240Z,5.35
2023-05-14T06:06:24.925Z,4.97
2023-05-14T06:09:26.831Z,5.27
2023-05-14T06:12:28.985Z,5.47
2023-05-14T06:15:30.904Z,4.78
2023-05-14T06:18:33.324Z,4.95
2023-05-14T06:21:35.758Z,5.13
2023-05-14T06:24:38.123Z,4.95
2023-05-14T06:27:40.539Z,5.55
2023-05-14T06:30:43.020Z,5.38
2023-05-14T06:33:45.292Z,4.93
2023-05-14T06:36:47.321Z,4.87
2023-05-14T06:39:52.557Z,5.53
2023-05-14T06:42:54.898Z,5.32
2023-05-14T06:45:56.964Z,5.45
2023-05-14T06:48:59.707Z,5.40
2023-05-14T06:52:02.018Z,5.07
2023-05-14T06:55:04.074Z,5.32
2023-05-14T06:58:06.580Z,5.03
2023-05-14T07:01:08.605Z,5.28
2023-05-14T07:04:10.568Z,5.83
2023-05-14T07:07:15.490Z,5.40
2023-05-14T07:10:18.045Z,5.32
2023-05-14T07:13:20.106Z,6.30
2023-05-14T07:16:22.099Z,6.20
2023-05-14T07:19:24.044Z,6.27
2023-05-14T07:22:26.093Z,6.93
2023-05-14T07:25:28.153Z,5.53
2023-05-14T07:28:30.758Z,5.28
2023-05-14T07:31:32.942Z,5.60
2023-05-14T07:34:35.001Z,5.65
2023-05-14T07:37:37.321Z,5.72
2023-05-14T07:40:39.371Z,5.22
2023-05-14T07:43:41.693Z,5.90
2023-05-14T07:46:43.768Z,5.70
2023-05-14T07:49:45.853Z,6.30
2023-05-14T07:52:47.874Z,6.80
2023-05-14T07:55:50.531Z,6.90
2023-05-14T07:58:52.496Z,7.05
2023-05-14T08:01:54.969Z,7.37
2023-05-14T08:04:57.539Z,6.78
2023-05-14T08:08:00.037Z,6.47
2023-05-14T08:11:03.257Z,6.43
2023-05-14T08:14:05.216Z,6.93
2023-05-14T08:17:14.217Z,6.43
2023-05-14T08:20:16.233Z,6.65
2023-05-14T08:23:18.192Z,7.18
2023-05-14T08:26:20.116Z,6.88
2023-05-14T08:29:22.500Z,7.35
2023-05-14T08:32:25.061Z,6.60
2023-05-14T08:35:27.083Z,6.40
2023-05-14T08:38:29.065Z,5.70
2023-05-14T08:41:31.178Z,6.50
2023-05-14T08:44:36.406Z,7.10
2023-05-14T08:47:39.015Z,7.07
2023-05-14T08:50:41.138Z,6.20
2023-05-14T08:53:43.606Z,6.50
2023-05-14T08:56:46.518Z,6.80
2023-05-14T08:59:48.614Z,6.80
2023-05-14T09:02:51.041Z,6.60
2023-05-14T09:05:53.560Z,6.22
2023-05-14T09:08:56.233Z,6.95
2023-05-14T09:11:58.370Z,6.25
2023-05-14T09:15:00.747Z,7.75
2023-05-14T09:18:05.587Z,6.30
2023-05-14T09:21:07.685Z,6.68
2023-05-14T09:24:10.094Z,6.70
2023-05-14T09:27:19.847Z,6.78
2023-05-14T09:30:22.278Z,6.68
2023-05-14T09:33:31.091Z,6.70
2023-05-14T09:36:34.221Z,6.30
2023-05-14T09:39:37.316Z,5.85
2023-05-14T09:42:40.032Z,6.18
2023-05-14T09:45:42.508Z,8.35
2023-05-14T09:48:46.065Z,8.00
2023-05-14T09:51:48.630Z,7.65
2023-05-14T09:54:52.336Z,7.35
2023-05-14T09:57:54.271Z,7.05
2023-05-14T10:00:56.943Z,13.55
2023-05-14T10:03:59.221Z,14.77
2023-05-14T10:07:01.750Z,17.33
2023-05-14T10:10:04.182Z,11.80
2023-05-14T10:13:14.600Z,13.00
2023-05-14T10:16:17.318Z,12.30
2023-05-14T10:19:20.967Z,10.43
2023-05-14T10:22:23.472Z,9.57
2023-05-14T10:25:25.876Z,8.40
2023-05-14T10:28:27.903Z,8.93
2023-05-14T10:31:48.594Z,8.13
2023-05-14T10:34:50.747Z,8.13
2023-05-14T10:37:52.718Z,7.75
2023-05-14T10:41:23.538Z,8.90
2023-05-14T10:44:25.626Z,7.28
2023-05-14T10:47:28.325Z,7.97
2023-05-14T10:50:31.034Z,8.30
2023-05-14T10:53:36.947Z,8.73
2023-05-14T10:56:39.054Z,8.15
2023-05-14T10:59:41.974Z,7.35
2023-05-14T11:02:44.846Z,7.65
2023-05-14T11:05:47.033Z,7.13
2023-05-14T11:08:50.022Z,7.60
2023-05-14T11:11:52.412Z,7.75
2023-05-14T11:14:56.193Z,7.53
2023-05-14T11:17:58.561Z,8.65
2023-05-14T11:21:00.856Z,8.30
2023-05-14T11:24:05.035Z,7.38
2023-05-14T11:27:08.832Z,7.35
2023-05-14T11:30:14.661Z,7.88
2023-05-14T11:33:17.300Z,8.98
2023-05-14T11:36:19.641Z,7.30
2023-05-14T11:39:21.722Z,6.78
2023-05-14T11:42:24.735Z,7.00
2023-05-14T11:45:27.383Z,6.88
2023-05-14T11:48:29.799Z,7.13
2023-05-14T11:51:32.042Z,8.10
2023-05-14T11:54:34.684Z,7.15
2023-05-14T11:57:36.631Z,6.25
2023-05-14T12:00:39.075Z,6.65
2023-05-14T12:03:42.411Z,6.90
2023-05-14T12:06:44.571Z,6.03
2023-05-14T12:09:50.662Z,6.65
2023-05-14T12:12:52.742Z,7.20
2023-05-14T12:16:00.445Z,6.90
2023-05-14T12:19:02.520Z,7.13
2023-05-14T12:22:14.731Z,7.77
2023-05-14T12:25:17.094Z,8.27
2023-05-14T12:28:19.274Z,7.93
2023-05-14T12:31:27.834Z,7.55
2023-05-14T12:34:30.531Z,7.53
2023-05-14T12:37:32.548Z,8.03
2023-05-14T12:40:35.040Z,8.27
2023-05-14T12:43:37.121Z,8.18
2023-05-14T12:46:39.254Z,7.80
2023-05-14T12:49:41.193Z,9.90
2023-05-14T12:52:43.656Z,8.53
2023-05-14T12:55:45.780Z,10.75
2023-05-14T12:58:47.818Z,10.65
2023-05-14T13:01:50.136Z,10.73
2023-05-14T13:04:52.470Z,8.73
2023-05-14T13:07:54.968Z,9.17
2023-05-14T13:10:57.402Z,8.93
2023-05-14T13:13:59.614Z,9.25
2023-05-14T13:17:02.136Z,8.70
2023-05-14T13:20:04.830Z,8.38
2023-05-14T13:23:06.990Z,9.23
2023-05-14T13:26:09.802Z,9.35
2023-05-14T13:29:12.494Z,9.25
2023-05-14T13:32:14.869Z,8.57
2023-05-14T13:35:16.876Z,9.48
2023-05-14T13:38:18.852Z,10.37
2023-05-14T13:41:21.764Z,12.20
2023-05-14T13:44:24.171Z,11.25
2023-05-14T13:47:26.716Z,9.45
2023-05-14T13:50:28.694Z,10.40
2023-05-14T13:53:30.801Z,9.83
2023-05-14T13:56:33.178Z,9.48
2023-05-14T13:59:35.833Z,10.88
2023-05-14T14:02:37.832Z,12.43
2023-05-14T14:05:40.258Z,12.65
2023-05-14T14:08:42.647Z,10.53
2023-05-14T14:11:45.029Z,10.95
2023-05-14T14:14:47.913Z,10.85
2023-05-14T14:17:50.364Z,10.20
2023-05-14T14:20:52.632Z,10.90
2023-05-14T14:23:54.651Z,9.27
2023-05-14T14:26:57.088Z,11.45
2023-05-14T14:29:59.531Z,9.48
2023-05-14T14:33:02.064Z,7.68
2023-05-14T14:36:04.303Z,5.88
2023-05-14T14:39:06.420Z,6.87
2023-05-14T14:42:08.431Z,6.93
2023-05-14T14:45:10.770Z,6.57
2023-05-14T14:48:28.619Z,5.63
2023-05-14T14:51:31.425Z,5.22
2023-05-14T14:54:33.476Z,5.13
2023-05-14T14:57:36.034Z,5.10
2023-05-14T15:00:38.061Z,5.72
2023-05-14T15:03:40.193Z,5.30
2023-05-14T15:06:42.276Z,6.00
2023-05-14T15:09:44.366Z,5.78
2023-05-14T15:12:46.362Z,6.15
2023-05-14T15:15:50.272Z,5.68
2023-05-14T15:18:52.727Z,5.45
2023-05-14T15:21:55.339Z,6.10
2023-05-14T15:24:57.269Z,6.28
2023-05-14T15:27:59.639Z,6.30
2023-05-14T15:31:02.584Z,6.25
2023-05-14T15:34:04.640Z,5.55
2023-05-14T15:37:06.659Z,6.33
2023-05-14T15:40:09.196Z,8.25
2023-05-14T15:43:11.630Z,6.50
2023-05-14T15:46:13.677Z,6.35
2023-05-14T15:49:15.793Z,6.90
2023-05-14T15:52:17.759Z,6.67
2023-05-14T15:55:19.698Z,6.53
2023-05-14T15:58:21.685Z,6.35
2023-05-14T16:01:24.197Z,7.10
2023-05-14T16:04:26.279Z,5.90
2023-05-14T16:07:28.268Z,5.60
2023-05-14T16:10:30.456Z,5.68
2023-05-14T16:13:32.507Z,4.72
2023-05-14T16:16:35.208Z,5.95
2023-05-14T16:19:38.420Z,5.87
2023-05-14T16:22:40.747Z,5.53
2023-05-14T16:25:42.689Z,5.65
2023-05-14T16:28:44.776Z,4.95
2023-05-14T16:31:47.271Z,4.90
2023-05-14T16:34:49.968Z,4.23
2023-05-14T16:37:52.071Z,5.05
2023-05-14T16:40:54.148Z,4.93
2023-05-14T16:43:56.184Z,4.97
2023-05-14T16:46:58.738Z,5.60
2023-05-14T16:50:01.175Z,5.93
2023-05-14T16:53:03.250Z,8.02
2023-05-14T16:56:06.188Z,5.68
2023-05-14T16:59:08.688Z,4.97
2023-05-14T17:02:11.505Z,5.33
2023-05-14T17:05:13.446Z,5.18
2023-05-14T17:08:16.491Z,4.70
2023-05-14T17:11:18.947Z,5.38
2023-05-14T17:14:21.135Z,5.78
2023-05-14T17:17:23.694Z,6.00
2023-05-14T17:20:25.684Z,6.47
2023-05-14T17:23:27.715Z,5.43
2023-05-14T17:26:29.660Z,6.30
2023-05-14T17:29:32.021Z,6.93
2023-05-14T17:32:34.037Z,6.23
2023-05-14T17:35:36.483Z,6.80
2023-05-14T17:38:39.093Z,7.32
2023-05-14T17:41:42.144Z,6.53
2023-05-14T17:44:44.204Z,7.20
2023-05-14T17:47:47.122Z,7.87
2023-05-14T17:50:49.137Z,6.47
2023-05-14T17:53:51.509Z,7.47
2023-05-14T17:56:53.524Z,6.88
2023-05-14T17:59:56.123Z,6.63
2023-05-14T18:02:58.196Z,7.27
2023-05-14T18:06:00.384Z,6.05
2023-05-14T18:09:02.855Z,6.55
2023-05-14T18:12:05.619Z,6.57
2023-05-14T18:15:07.821Z,6.38
2023-05-14T18:18:09.953Z,6.73
2023-05-14T18:21:11.967Z,6.90
2023-05-14T18:24:14.190Z,6.38
2023-05-14T18:27:16.146Z,7.70
2023-05-14T18:30:18.488Z,6.95
2023-05-14T18:33:20.918Z,6.47
2023-05-14T18:36:23.385Z,7.13
2023-05-14T18:39:25.455Z,7.07
2023-05-14T18:42:27.542Z,7.57
2023-05-14T18:45:29.519Z,7.93
2023-05-14T18:48:31.777Z,7.90
2023-05-14T18:51:33.821Z,6.75
2023-05-14T18:54:36.846Z,6.50
2023-05-14T18:57:38.769Z,6.18
2023-05-14T19:00:40.774Z,7.00
2023-05-14T19:03:43.167Z,6.70
2023-05-14T19:06:45.277Z,6.68
2023-05-14T19:09:47.259Z,6.47
2023-05-14T19:12:50.043Z,7.20
2023-05-14T19:15:52.137Z,6.70
2023-05-14T19:18:54.604Z,7.40
2023-05-14T19:21:56.653Z,7.95
2023-05-14T19:24:58.592Z,6.53
2023-05-14T19:28:01.908Z,6.18
2023-05-14T19:31:04.427Z,7.03
2023-05-14T19:34:06.738Z,6.43
2023-05-14T19:37:08.933Z,6.65
2023-05-14T19:40:11.640Z,6.35
2023-05-14T19:43:13.996Z,6.03
2023-05-14T19:46:16.404Z,6.33
2023-05-14T19:49:18.861Z,6.03
2023-05-14T19:52:20.870Z,5.65
2023-05-14T19:55:23.005Z,6.53
2023-05-14T19:58:25.422Z,6.35
2023-05-14T20:01:27.837Z,6.63
2023-05-14T20:04:29.898Z,6.43
2023-05-14T20:07:33.683Z,6.85
2023-05-14T20:10:36.029Z,6.10
2023-05-14T20:13:38.454Z,6.80
2023-05-14T20:16:41.691Z,7.53
2023-05-14T20:19:44.333Z,7.60
2023-05-14T20:22:46.316Z,8.00
2023-05-14T20:25:48.722Z,7.95
2023-05-14T20:28:50.733Z,7.95
2023-05-14T20:31:53.161Z,7.87
2023-05-14T20:34:55.338Z,7.88
2023-05-14T20:37:57.882Z,6.78
2023-05-14T20:40:59.899Z,6.13
2023-05-14T20:44:01.914Z,6.05
2023-05-14T20:47:04.391Z,5.83
2023-05-14T20:50:07.130Z,6.95
2023-05-14T20:53:09.119Z,6.18
2023-05-14T20:56:11.235Z,5.70
2023-05-14T20:59:13.550Z,6.13
2023-05-14T21:02:15.943Z,6.57
2023-05-14T21:05:18.110Z,6.03
2023-05-14T21:08:20.529Z,6.07
2023-05-14T21:11:23.089Z,6.05
2023-05-14T21:14:25.132Z,6.25
2023-05-14T21:17:27.159Z,6.87
2023-05-14T21:20:29.262Z,6.22
2023-05-14T21:23:31.358Z,6.28
2023-05-14T21:26:33.521Z,6.40
2023-05-14T21:29:35.636Z,6.20
2023-05-14T21:32:37.870Z,6.33
2023-05-14T21:35:39.987Z,5.93
2023-05-14T21:38:41.968Z,5.95
2023-05-14T21:41:43.996Z,6.10
2023-05-14T21:44:46.090Z,6.07
2023-05-14T21:47:48.591Z,6.03
2023-05-14T21:50:50.704Z,5.57
2023-05-14T21:53:53.115Z,6.13
2023-05-14T21:56:55.472Z,6.28
2023-05-14T21:59:58.264Z,5.87
2023-05-14T22:03:00.646Z,6.83
2023-05-14T22:06:02.636Z,6.57
2023-05-14T22:09:04.625Z,6.90
2023-05-14T22:12:07.063Z,7.13
2023-05-14T22:15:09.774Z,7.03
2023-05-14T22:18:13.107Z,6.97
2023-05-14T22:21:15.179Z,7.78
2023-05-14T22:24:17.150Z,7.35
2023-05-14T22:27:19.132Z,6.72
2023-05-14T22:30:21.412Z,7.20
2023-05-14T22:33:23.542Z,7.60
2023-05-14T22:36:25.612Z,8.00
2023-05-14T22:39:27.786Z,8.23
2023-05-14T22:42:30.308Z,8.38
2023-05-14T22:45:32.429Z,8.80
2023-05-14T22:48:34.435Z,9.00
2023-05-14T22:51:36.782Z,8.85
2023-05-14T22:54:39.176Z,8.70
2023-05-14T22:57:41.354Z,9.40
2023-05-14T23:00:43.533Z,8.33
2023-05-14T23:03:45.492Z,8.87
2023-05-14T23:06:47.548Z,9.10
2023-05-14T23:09:49.673Z,9.05
2023-05-14T23:12:52.112Z,8.32
2023-05-14T23:15:54.106Z,9.93
2023-05-14T23:18:56.232Z,9.00
2023-05-14T23:21:59.636Z,8.63
2023-05-14T23:25:01.996Z,9.18
2023-05-14T23:28:04.097Z,9.63
2023-05-14T23:31:06.195Z,8.63
2023-05-14T23:34:08.483Z,10.27
2023-05-14T23:37:10.480Z,8.95
2023-05-14T23:40:12.818Z,9.25
2023-05-14T23:43:15.232Z,9.55
2023-05-14T23:46:17.434Z,9.77
2023-05-14T23:49:19.480Z,8.90
2023-05-14T23:52:21.639Z,9.93
2023-05-14T23:55:24.543Z,10.13
2023-05-14T23:58:26.790Z,9.80
